Time;durP1;ratioP1;P1;durP2;ratioP2;P2;SDS_P1;SDS_P2;PMS_P1;PMS_P2;Temp;Humidity;BMP_temperature;BMP_pressure;BME280_temperature;BME280_humidity;BME280_pressure;Samples;Min_cycle;Max_cycle;Signal;HPM_P1;HPM_P2
2023/05/07 00:01:43;;;;;;;49.10;35.50;;;11.30;80.40;;;;;;5017827;28;20060;-91
2023/05/07 00:04:09;;;;;;;45.37;33.90;;;11.30;80.50;;;;;;4961076;28;20076;-93
2023/05/07 00:06:35;;;;;;;45.45;32.60;;;11.20;80.50;;;;;;4978665;28;20046;-94
2023/05/07 00:09:01;;;;;;;49.28;36.08;;;11.10;80.50;;;;;;4995384;28;20104;-92
2023/05/07 00:11:28;;;;;;;44.95;35.25;;;11.10;80.50;;;;;;4962997;28;20057;-91
2023/05/07 00:13:54;;;;;;;46.63;35.05;;;11.10;80.50;;;;;;4992519;28;20081;-91
2023/05/07 00:16:20;;;;;;;54.47;36.05;;;11.10;80.60;;;;;;4996589;28;20042;-94
2023/05/07 00:18:46;;;;;;;51.53;36.05;;;11.10;80.70;;;;;;4984312;28;20069;-92
2023/05/07 00:21:11;;;;;;;50.88;37.17;;;11.10;80.60;;;;;;4982156;28;20711;-92
2023/05/07 00:23:37;;;;;;;52.80;38.00;;;11.10;80.70;;;;;;4979364;28;20052;-92
2023/05/07 00:26:04;;;;;;;49.03;36.35;;;11.00;80.70;;;;;;4965436;28;20713;-92
2023/05/07 00:28:30;;;;;;;52.57;36.63;;;11.00;80.70;;;;;;4991712;28;20050;-92
2023/05/07 00:30:58;;;;;;;52.63;38.83;;;11.00;80.70;;;;;;4997539;28;20052;-91
2023/05/07 00:33:26;;;;;;;56.58;40.15;;;10.90;80.90;;;;;;4996421;28;20104;-91
2023/05/07 00:35:53;;;;;;;55.95;38.38;;;10.90;80.80;;;;;;4994980;28;20137;-94
2023/05/07 00:38:19;;;;;;;57.20;39.43;;;10.80;80.90;;;;;;4975955;28;20050;-92
2023/05/07 00:40:45;;;;;;;59.87;40.70;;;10.80;80.90;;;;;;4981864;28;20100;-91
2023/05/07 00:43:12;;;;;;;62.63;42.27;;;10.80;81.00;;;;;;4997242;28;20120;-93
2023/05/07 00:45:38;;;;;;;59.87;42.43;;;10.70;81.00;;;;;;4997476;28;20073;-92
2023/05/07 00:48:04;;;;;;;67.65;41.55;;;10.70;81.10;;;;;;4974658;28;20520;-94
2023/05/07 00:50:33;;;;;;;60.40;42.05;;;10.70;81.20;;;;;;4981290;28;20057;-91
2023/05/07 00:53:02;;;;;;;62.60;43.37;;;10.70;81.10;;;;;;4995632;28;20263;-91
2023/05/07 00:55:29;;;;;;;61.97;43.63;;;10.60;81.20;;;;;;4981366;28;20046;-92
2023/05/07 00:57:55;;;;;;;60.90;41.60;;;10.60;81.20;;;;;;4974792;28;20129;-93
2023/05/07 01:00:21;;;;;;;68.87;45.10;;;10.60;81.30;;;;;;4981494;28;20108;-92
2023/05/07 01:02:47;;;;;;;65.43;45.43;;;10.60;81.40;;;;;;4987891;28;20085;-93
2023/05/07 01:05:15;;;;;;;68.03;45.37;;;10.60;81.40;;;;;;4981270;28;20050;-93
2023/05/07 01:07:45;;;;;;;70.20;46.90;;;10.50;81.40;;;;;;4991056;28;20058;-93
2023/05/07 01:10:12;;;;;;;66.60;45.13;;;10.50;81.50;;;;;;4967501;28;20041;-91
2023/05/07 01:12:39;;;;;;;73.93;48.57;;;10.50;81.50;;;;;;4975077;28;20052;-92
2023/05/07 01:15:07;;;;;;;69.80;45.63;;;10.50;81.50;;;;;;4997963;28;20192;-92
2023/05/07 01:17:37;;;;;;;72.13;47.63;;;10.50;81.50;;;;;;4960539;28;20434;-93
2023/05/07 01:20:05;;;;;;;77.73;49.40;;;10.50;81.60;;;;;;4982823;28;20077;-93
2023/05/07 01:22:37;;;;;;;74.60;48.43;;;10.40;81.60;;;;;;5011763;28;20042;-94
2023/05/07 01:25:04;;;;;;;73.53;48.20;;;10.50;81.70;;;;;;4997397;28;20090;-93
2023/05/07 01:27:29;;;;;;;74.30;47.87;;;10.50;81.70;;;;;;4990453;28;20053;-92
2023/05/07 01:29:55;;;;;;;75.93;49.10;;;10.40;81.80;;;;;;4964812;28;20482;-93
2023/05/07 01:32:33;;;;;;;77.63;51.37;;;10.40;81.80;;;;;;4986833;28;20398;-94
2023/05/07 01:35:01;;;;;;;71.27;48.47;;;10.40;81.90;;;;;;4999779;28;20068;-94
2023/05/07 01:37:27;;;;;;;71.63;48.80;;;10.50;81.90;;;;;;4951034;28;20042;-92
2023/05/07 01:39:54;;;;;;;77.57;49.53;;;10.40;82.00;;;;;;4983217;28;20561;-91
2023/05/07 01:42:20;;;;;;;75.03;49.27;;;10.40;81.90;;;;;;4975328;28;20057;-92
2023/05/07 01:44:46;;;;;;;80.00;51.23;;;10.40;81.90;;;;;;4957215;28;20141;-92
2023/05/07 01:47:13;;;;;;;82.43;51.07;;;10.50;81.90;;;;;;4974373;28;20042;-93
2023/05/07 01:49:40;;;;;;;80.53;52.07;;;10.50;82.00;;;;;;4980538;28;20045;-91
2023/05/07 01:52:06;;;;;;;85.53;52.73;;;10.50;81.90;;;;;;4994880;28;20389;-92
2023/05/07 01:54:34;;;;;;;79.33;52.37;;;10.40;82.00;;;;;;4982444;28;20202;-92
2023/05/07 01:57:00;;;;;;;75.80;51.27;;;10.40;82.00;;;;;;4948264;28;20042;-91
2023/05/07 01:59:26;;;;;;;77.63;51.53;;;10.40;81.90;;;;;;4979950;28;20482;-93
2023/05/07 02:01:52;;;;;;;79.23;53.53;;;10.40;81.90;;;;;;4964379;28;20618;-94
2023/05/07 02:04:20;;;;;;;73.10;49.10;;;10.40;82.00;;;;;;4982049;28;20045;-92
2023/05/07 02:06:46;;;;;;;70.30;50.13;;;10.40;82.00;;;;;;4995041;28;20029;-92
2023/05/07 02:09:14;;;;;;;69.53;48.70;;;10.40;81.90;;;;;;5030092;28;20053;-92
2023/05/07 02:11:40;;;;;;;77.10;49.53;;;10.40;81.80;;;;;;5015985;28;20084;-94
2023/05/07 02:14:08;;;;;;;70.83;47.37;;;10.30;81.90;;;;;;5005381;28;20069;-93
2023/05/07 02:16:34;;;;;;;73.33;48.43;;;10.30;81.90;;;;;;4979869;28;20037;-94
2023/05/07 02:19:00;;;;;;;65.63;45.70;;;10.30;81.80;;;;;;4980532;28;20543;-92
2023/05/07 02:21:26;;;;;;;72.30;46.87;;;10.30;81.90;;;;;;5031816;28;20042;-91
2023/05/07 02:23:52;;;;;;;70.13;46.47;;;10.30;81.90;;;;;;4998242;28;20045;-92
2023/05/07 02:26:18;;;;;;;69.70;46.30;;;10.20;82.00;;;;;;4997404;28;20460;-93
2023/05/07 02:28:47;;;;;;;74.23;47.90;;;10.20;81.90;;;;;;5010723;28;20549;-92
2023/05/07 02:31:12;;;;;;;75.60;47.40;;;10.20;81.90;;;;;;4982470;28;20053;-92
2023/05/07 02:33:38;;;;;;;73.73;46.07;;;10.20;82.00;;;;;;5013954;28;20145;-92
2023/05/07 02:36:12;;;;;;;70.07;46.87;;;10.20;81.90;;;;;;5006179;28;20370;-93
2023/05/07 02:38:38;;;;;;;74.07;48.37;;;10.20;81.90;;;;;;4978596;28;20065;-93
2023/05/07 02:41:04;;;;;;;77.43;48.47;;;10.20;82.00;;;;;;4998722;28;20045;-92
2023/05/07 02:43:30;;;;;;;68.77;47.63;;;10.20;81.90;;;;;;5013553;28;20060;-92
2023/05/07 02:46:05;;;;;;;73.10;48.77;;;10.10;81.90;;;;;;5014867;28;20128;-90
2023/05/07 02:48:34;;;;;;;72.87;48.67;;;10.10;81.90;;;;;;4992382;28;20048;-93
2023/05/07 02:51:01;;;;;;;80.53;50.43;;;10.10;82.00;;;;;;4998958;28;20088;-92
2023/05/07 02:53:27;;;;;;;78.30;49.30;;;10.10;82.00;;;;;;4997754;28;20069;-92
2023/05/07 02:55:59;;;;;;;78.87;49.47;;;10.10;82.10;;;;;;5014836;28;20057;-93
2023/05/07 02:58:27;;;;;;;80.63;49.73;;;10.10;82.00;;;;;;5008429;28;20037;-92
2023/05/07 03:01:00;;;;;;;81.40;50.87;;;10.10;82.00;;;;;;4998530;28;20049;-93
2023/05/07 03:03:25;;;;;;;80.40;50.23;;;10.10;82.00;;;;;;5012509;28;20135;-93
2023/05/07 03:05:51;;;;;;;70.20;46.87;;;10.10;82.10;;;;;;4979300;28;20070;-92
2023/05/07 03:08:17;;;;;;;78.47;49.63;;;10.10;82.10;;;;;;4980904;28;20065;-92
2023/05/07 03:10:43;;;;;;;75.70;50.30;;;10.10;82.10;;;;;;5014571;28;20137;-91
2023/05/07 03:13:09;;;;;;;79.70;49.87;;;10.10;82.00;;;;;;4998600;28;20524;-92
2023/05/07 03:15:37;;;;;;;81.50;51.67;;;10.10;82.10;;;;;;5018929;28;20140;-92
2023/05/07 03:18:03;;;;;;;82.87;52.20;;;10.10;82.20;;;;;;4980734;28;20042;-92
2023/05/07 03:20:29;;;;;;;80.10;49.80;;;10.10;82.20;;;;;;4986560;28;20072;-93
2023/05/07 03:22:55;;;;;;;74.10;48.87;;;10.10;82.10;;;;;;5001484;28;20091;-92
2023/05/07 03:25:21;;;;;;;79.10;50.27;;;10.10;82.20;;;;;;5002533;28;20433;-92
2023/05/07 03:27:47;;;;;;;83.93;52.60;;;10.10;82.20;;;;;;5012554;28;20095;-93
2023/05/07 03:30:13;;;;;;;74.83;49.13;;;10.00;82.10;;;;;;5018735;28;20057;-91
2023/05/07 03:32:39;;;;;;;80.00;51.17;;;10.00;82.10;;;;;;4984627;28;20731;-91
2023/05/07 03:35:10;;;;;;;80.13;50.83;;;10.00;82.00;;;;;;5018599;28;20100;-92
2023/05/07 03:37:35;;;;;;;83.07;51.47;;;10.00;82.10;;;;;;4997091;28;20109;-91
2023/05/07 03:40:02;;;;;;;78.03;50.27;;;10.00;82.10;;;;;;4986290;28;20176;-93
2023/05/07 03:42:30;;;;;;;76.90;49.73;;;10.00;82.10;;;;;;5001416;28;20041;-94
2023/05/07 03:44:56;;;;;;;81.47;51.43;;;10.00;82.10;;;;;;5018377;28;20053;-92
2023/05/07 03:47:22;;;;;;;80.93;50.63;;;10.00;82.10;;;;;;4995813;28;20049;-93
2023/05/07 03:50:18;;;;;;;;;;;;;;;;;;;;;
2023/05/07 03:53:07;;;;;;;79.33;50.20;;;10.00;82.00;;;;;;5034836;28;20049;-94
2023/05/07 03:55:56;;;;;;;79.30;50.30;;;10.00;82.00;;;;;;5002131;28;20068;-95
2023/05/07 03:58:21;;;;;;;83.90;51.50;;;10.00;81.90;;;;;;5011335;28;20046;-91
2023/05/07 04:00:48;;;;;;;82.37;51.63;;;10.00;82.00;;;;;;5018041;28;20096;-93
2023/05/07 04:03:14;;;;;;;77.80;50.80;;;9.90;82.00;;;;;;5014897;28;20054;-94
2023/05/07 04:05:40;;;;;;;83.90;51.60;;;9.90;82.00;;;;;;5017639;28;20041;-93
2023/05/07 04:08:06;;;;;;;84.73;52.97;;;9.90;82.00;;;;;;4995062;28;20128;-93
2023/05/07 04:10:35;;;;;;;76.40;51.03;;;9.90;82.10;;;;;;5034689;28;20079;-92
2023/05/07 04:13:00;;;;;;;79.10;51.97;;;9.90;82.00;;;;;;4999677;28;20049;-92
2023/05/07 04:15:26;;;;;;;86.87;52.97;;;9.90;81.80;;;;;;5018219;28;20059;-92
2023/05/07 04:17:52;;;;;;;68.77;49.50;;;9.80;81.80;;;;;;5011360;28;20659;-91
2023/05/07 04:20:18;;;;;;;76.60;50.93;;;9.80;81.60;;;;;;5034099;28;20075;-91
2023/05/07 04:22:44;;;;;;;73.97;49.80;;;9.80;81.60;;;;;;4998731;28;20048;-93
2023/05/07 04:25:13;;;;;;;76.23;50.67;;;9.80;81.50;;;;;;4981412;28;20053;-92
2023/05/07 04:27:38;;;;;;;74.13;49.60;;;9.80;81.50;;;;;;4988912;28;20045;-91
2023/05/07 04:30:06;;;;;;;77.33;48.87;;;9.80;81.50;;;;;;5017868;28;20049;-89
2023/05/07 04:32:32;;;;;;;71.00;49.43;;;9.80;81.50;;;;;;4999069;28;20064;-92
2023/05/07 04:34:58;;;;;;;71.50;47.07;;;9.70;81.50;;;;;;5017498;28;20045;-92
2023/05/07 04:37:28;;;;;;;68.13;47.40;;;9.70;81.50;;;;;;4979605;28;20045;-92
2023/05/07 04:39:53;;;;;;;70.87;47.03;;;9.70;81.50;;;;;;5017459;28;20236;-92
2023/05/07 04:42:19;;;;;;;73.53;48.47;;;9.70;81.50;;;;;;5015968;28;20049;-93
2023/05/07 04:44:45;;;;;;;73.60;49.90;;;9.70;81.50;;;;;;5017887;28;20046;-93
2023/05/07 04:47:11;;;;;;;76.57;50.07;;;9.70;81.60;;;;;;5011353;28;20042;-91
2023/05/07 04:49:38;;;;;;;81.83;50.13;;;9.70;81.60;;;;;;5017400;28;20073;-92
2023/05/07 04:52:07;;;;;;;74.63;50.57;;;9.70;81.70;;;;;;5016212;28;20053;-91
2023/05/07 04:54:33;;;;;;;77.13;48.93;;;9.70;81.70;;;;;;5017181;28;20103;-92
2023/05/07 04:56:59;;;;;;;80.13;50.03;;;9.70;81.80;;;;;;4995915;28;20041;-93
2023/05/07 04:59:24;;;;;;;79.90;51.70;;;9.70;81.80;;;;;;5015011;28;20077;-91
2023/05/07 05:01:50;;;;;;;66.93;47.20;;;9.70;81.70;;;;;;5017045;28;20087;-91
2023/05/07 05:04:16;;;;;;;73.83;48.53;;;9.70;81.70;;;;;;5014224;28;20148;-92
2023/05/07 05:06:42;;;;;;;74.23;49.03;;;9.70;81.60;;;;;;4994698;28;20332;-94
2023/05/07 05:09:08;;;;;;;71.13;46.97;;;9.70;81.60;;;;;;4987340;28;20084;-93
2023/05/07 05:11:33;;;;;;;70.90;47.67;;;9.70;81.50;;;;;;4994945;28;20065;-94
2023/05/07 05:14:02;;;;;;;66.47;46.13;;;9.70;81.40;;;;;;5015442;28;20562;-92
2023/05/07 05:16:28;;;;;;;67.77;44.47;;;9.70;81.40;;;;;;4980025;28;20041;-93
2023/05/07 05:18:54;;;;;;;62.47;43.93;;;9.60;81.20;;;;;;4977569;28;20054;-91
2023/05/07 05:21:20;;;;;;;66.43;45.17;;;9.60;81.10;;;;;;4987282;28;20474;-92
2023/05/07 05:23:47;;;;;;;65.70;45.57;;;9.60;81.20;;;;;;5015305;28;20050;-92
2023/05/07 05:26:12;;;;;;;59.43;43.93;;;9.60;81.30;;;;;;5015401;28;20045;-93
2023/05/07 05:28:38;;;;;;;61.20;42.73;;;9.60;81.30;;;;;;4994152;28;20052;-93
2023/05/07 05:31:05;;;;;;;65.20;43.63;;;9.60;81.20;;;;;;4995739;28;20132;-92
2023/05/07 05:33:31;;;;;;;66.83;44.40;;;9.60;81.20;;;;;;4998338;28;20442;-93
2023/05/07 05:35:56;;;;;;;62.50;43.60;;;9.70;81.30;;;;;;5013760;28;20053;-94
2023/05/07 05:38:25;;;;;;;61.87;43.57;;;9.60;81.30;;;;;;4994149;28;20114;-92
2023/05/07 05:40:51;;;;;;;62.93;43.50;;;9.60;81.20;;;;;;5011783;28;20064;-93
2023/05/07 05:43:17;;;;;;;54.87;41.70;;;9.60;81.10;;;;;;5015269;28;20045;-91
2023/05/07 05:45:43;;;;;;;61.63;41.60;;;9.60;81.00;;;;;;5016044;28;20042;-92
2023/05/07 05:48:09;;;;;;;59.37;42.40;;;9.70;81.10;;;;;;4991268;28;20207;-92
2023/05/07 05:50:38;;;;;;;63.20;42.80;;;9.60;81.10;;;;;;4957533;28;20621;-93
2023/05/07 05:53:04;;;;;;;58.07;41.43;;;9.70;81.20;;;;;;4993933;28;20076;-92
2023/05/07 05:55:32;;;;;;;64.90;44.13;;;9.70;81.20;;;;;;4999725;28;20054;-93
2023/05/07 05:57:58;;;;;;;59.07;41.70;;;9.70;81.20;;;;;;5009786;28;20042;-92
2023/05/07 06:00:25;;;;;;;54.87;39.70;;;9.70;81.10;;;;;;4999712;28;20128;-93
2023/05/07 06:02:51;;;;;;;57.00;40.63;;;9.70;81.10;;;;;;4997450;28;20057;-93
2023/05/07 06:05:16;;;;;;;56.60;41.00;;;9.70;81.10;;;;;;5015827;28;20051;-93
2023/05/07 06:07:42;;;;;;;53.30;37.57;;;9.70;81.10;;;;;;5009493;28;20041;-92
2023/05/07 06:10:08;;;;;;;54.93;39.30;;;9.80;81.00;;;;;;5016075;28;20037;-92
2023/05/07 06:12:34;;;;;;;52.37;38.07;;;9.80;81.00;;;;;;5014438;28;20088;-92
2023/05/07 06:15:00;;;;;;;54.77;40.23;;;9.80;81.00;;;;;;5016012;28;20053;-92
2023/05/07 06:17:25;;;;;;;50.53;37.87;;;9.80;81.00;;;;;;4999647;28;20106;-93
2023/05/07 06:19:52;;;;;;;51.43;37.40;;;9.80;81.00;;;;;;4993047;28;20084;-91
2023/05/07 06:22:18;;;;;;;47.43;36.80;;;9.80;81.00;;;;;;5030498;28;20045;-92
2023/05/07 06:24:44;;;;;;;51.73;38.13;;;9.80;80.60;;;;;;4999510;28;20103;-92
2023/05/07 06:27:10;;;;;;;55.80;37.60;;;9.80;80.80;;;;;;5009479;28;20140;-92
2023/05/07 06:29:35;;;;;;;49.67;36.87;;;9.80;80.80;;;;;;4998680;28;20052;-90
2023/05/07 06:32:12;;;;;;;48.57;36.33;;;9.90;80.80;;;;;;5015680;28;20108;-91
2023/05/07 06:34:39;;;;;;;47.03;36.17;;;10.00;80.50;;;;;;4997584;28;20041;-92
2023/05/07 06:37:06;;;;;;;52.30;36.67;;;10.00;80.40;;;;;;5010780;28;20250;-91
2023/05/07 06:39:31;;;;;;;47.60;34.70;;;10.00;80.50;;;;;;4998303;28;20132;-93
2023/05/07 06:41:57;;;;;;;46.47;35.13;;;10.00;80.40;;;;;;5015332;28;20160;-93
2023/05/07 06:44:24;;;;;;;45.67;33.93;;;10.00;80.40;;;;;;5013730;28;20087;-92
2023/05/07 06:46:49;;;;;;;50.40;35.93;;;10.00;80.30;;;;;;4994588;28;20606;-93
2023/05/07 06:49:15;;;;;;;47.23;34.43;;;10.00;80.40;;;;;;4996999;28;20060;-91
2023/05/07 06:51:41;;;;;;;47.40;35.43;;;10.00;80.50;;;;;;5015441;28;20087;-94
2023/05/07 06:54:07;;;;;;;46.53;35.90;;;10.00;80.50;;;;;;5013651;28;20460;-92
2023/05/07 06:56:34;;;;;;;47.53;36.07;;;10.00;80.50;;;;;;4995398;28;20037;-93
2023/05/07 06:59:01;;;;;;;45.60;34.57;;;10.00;80.40;;;;;;5002769;28;20506;-92
2023/05/07 07:01:28;;;;;;;44.53;33.90;;;10.00;80.10;;;;;;4982597;28;20700;-90
2023/05/07 07:03:54;;;;;;;48.07;36.67;;;10.00;80.30;;;;;;5012614;28;20446;-91
2023/05/07 07:06:23;;;;;;;46.97;35.07;;;10.00;80.20;;;;;;4996337;28;20056;-95
2023/05/07 07:08:49;;;;;;;45.70;35.23;;;10.00;80.00;;;;;;5010640;28;20073;-92
2023/05/07 07:11:15;;;;;;;46.07;35.87;;;10.00;80.00;;;;;;4997889;28;20115;-93
2023/05/07 07:13:42;;;;;;;45.93;35.73;;;10.00;80.10;;;;;;4981564;28;20103;-91
2023/05/07 07:16:08;;;;;;;46.10;35.93;;;10.00;80.00;;;;;;4997859;28;20045;-93
2023/05/07 07:18:34;;;;;;;46.37;36.30;;;10.00;80.00;;;;;;4995793;28;20486;-91
2023/05/07 07:21:00;;;;;;;47.30;37.03;;;10.00;80.00;;;;;;5015141;28;20041;-91
2023/05/07 07:23:26;;;;;;;50.77;37.03;;;10.00;80.00;;;;;;5012765;28;20064;-91
2023/05/07 07:25:51;;;;;;;53.43;37.30;;;10.00;80.00;;;;;;5014801;28;20084;-92
2023/05/07 07:28:30;;;;;;;46.53;34.37;;;10.00;79.80;;;;;;4983999;28;20069;-96
2023/05/07 07:30:55;;;;;;;49.30;36.77;;;10.00;79.70;;;;;;5015324;28;20072;-91
2023/05/07 07:33:21;;;;;;;47.80;36.60;;;9.90;79.90;;;;;;4996759;28;20043;-91
2023/05/07 07:35:50;;;;;;;48.27;36.40;;;10.00;80.10;;;;;;4996257;28;20060;-92
2023/05/07 07:38:16;;;;;;;45.93;34.83;;;10.00;80.10;;;;;;5025742;28;20041;-92
2023/05/07 07:40:43;;;;;;;50.40;36.83;;;10.00;79.90;;;;;;4985115;28;20450;-92
2023/05/07 07:43:09;;;;;;;47.23;35.73;;;10.00;80.00;;;;;;4996224;28;20116;-92
2023/05/07 07:45:35;;;;;;;46.87;35.20;;;10.00;80.00;;;;;;4981618;28;20057;-92
2023/05/07 07:48:04;;;;;;;45.80;35.63;;;10.00;79.80;;;;;;4960763;28;20042;-93
2023/05/07 07:50:30;;;;;;;48.07;35.17;;;9.90;79.60;;;;;;4995828;28;20474;-93
2023/05/07 07:52:56;;;;;;;47.00;35.67;;;9.90;79.70;;;;;;4992193;28;20080;-90
2023/05/07 07:55:26;;;;;;;49.47;35.87;;;9.90;79.80;;;;;;4997451;28;20116;-93
2023/05/07 07:57:52;;;;;;;49.47;36.17;;;9.90;79.70;;;;;;4975558;28;20042;-91
2023/05/07 08:00:18;;;;;;;48.00;36.17;;;10.00;80.10;;;;;;5015813;28;20493;-93
2023/05/07 08:02:44;;;;;;;51.53;35.90;;;10.00;80.00;;;;;;5001557;28;20046;-93
2023/05/07 08:05:10;;;;;;;53.63;36.17;;;10.00;79.80;;;;;;4995704;28;20073;-91
2023/05/07 08:07:36;;;;;;;48.47;36.20;;;10.00;79.80;;;;;;4995398;28;20050;-92
2023/05/07 08:10:02;;;;;;;49.57;36.13;;;10.00;79.80;;;;;;5001423;28;20044;-93
2023/05/07 08:12:29;;;;;;;54.13;37.27;;;10.00;79.70;;;;;;4999500;28;20478;-92
2023/05/07 08:14:57;;;;;;;54.17;38.23;;;10.10;80.00;;;;;;5002049;28;20501;-90
2023/05/07 08:17:23;;;;;;;49.30;36.93;;;10.10;79.80;;;;;;4995223;28;20131;-92
2023/05/07 08:19:49;;;;;;;49.77;36.07;;;10.20;79.70;;;;;;5001785;28;20067;-94
2023/05/07 08:22:18;;;;;;;49.40;35.67;;;10.20;79.50;;;;;;4987891;28;20077;-93
2023/05/07 08:24:44;;;;;;;48.23;35.90;;;10.30;79.70;;;;;;5033617;28;20049;-92
2023/05/07 08:27:13;;;;;;;47.50;35.87;;;10.40;79.70;;;;;;4995074;28;20055;-92
2023/05/07 08:29:39;;;;;;;48.70;35.43;;;10.50;79.30;;;;;;5017506;28;20050;-92
2023/05/07 08:32:08;;;;;;;45.27;35.10;;;10.60;79.30;;;;;;4990251;28;20575;-92
2023/05/07 08:34:33;;;;;;;46.07;34.03;;;10.70;79.00;;;;;;5000997;28;20111;-92
2023/05/07 08:37:02;;;;;;;45.07;34.63;;;10.70;78.90;;;;;;5012875;28;20045;-93
2023/05/07 08:39:28;;;;;;;50.30;35.40;;;10.70;78.70;;;;;;4985874;28;20053;-95
2023/05/07 08:41:57;;;;;;;48.77;35.83;;;10.90;79.00;;;;;;5016746;28;20144;-94
2023/05/07 08:44:36;;;;;;;45.50;35.20;;;11.00;79.20;;;;;;4983557;28;20132;-92
2023/05/07 08:47:11;;;;;;;44.37;34.40;;;11.10;79.20;;;;;;4995509;28;20042;-90
2023/05/07 08:49:37;;;;;;;42.78;33.10;;;11.30;78.60;;;;;;4986879;28;20092;-91
2023/05/07 08:52:03;;;;;;;41.85;33.50;;;11.30;78.40;;;;;;4998444;28;20717;-90
2023/05/07 08:54:30;;;;;;;41.73;31.80;;;11.30;78.30;;;;;;5000963;28;20045;-91
2023/05/07 08:56:56;;;;;;;45.83;34.20;;;11.40;78.00;;;;;;5001430;28;20045;-92
2023/05/07 08:59:22;;;;;;;42.58;32.60;;;11.40;77.90;;;;;;4969206;28;20072;-92
2023/05/07 09:01:48;;;;;;;40.30;31.52;;;11.40;77.90;;;;;;4968270;28;20054;-93
2023/05/07 09:04:17;;;;;;;41.95;31.80;;;11.40;78.10;;;;;;5009763;28;20509;-93
2023/05/07 09:07:03;;;;;;;;;;;;;;;;;;;;;
2023/05/07 09:09:48;;;;;;;43.80;32.22;;;11.50;77.90;;;;;;5001315;28;20045;-93
2023/05/07 09:12:18;;;;;;;42.55;31.88;;;11.50;77.70;;;;;;4981068;28;20192;-94
2023/05/07 09:14:45;;;;;;;41.30;32.80;;;11.50;77.90;;;;;;4999770;28;20048;-92
2023/05/07 09:17:17;;;;;;;43.80;32.80;;;11.50;77.70;;;;;;4972542;28;20060;-93
2023/05/07 09:19:45;;;;;;;40.97;30.42;;;11.50;77.30;;;;;;4995441;28;20514;-93
2023/05/07 09:22:12;;;;;;;41.95;31.58;;;11.50;77.10;;;;;;4995369;28;20037;-93
2023/05/07 09:24:38;;;;;;;41.28;31.80;;;11.50;77.10;;;;;;5016802;28;20045;-93
2023/05/07 09:27:09;;;;;;;42.28;31.15;;;11.60;77.50;;;;;;4978600;28;20179;-91
2023/05/07 09:29:35;;;;;;;39.58;32.22;;;11.70;77.60;;;;;;5000060;28;20045;-93
2023/05/07 09:32:15;;;;;;;37.67;31.27;;;11.70;77.10;;;;;;5031202;28;20045;-94
2023/05/07 09:34:41;;;;;;;41.08;31.42;;;11.80;77.30;;;;;;4996103;28;20045;-92
2023/05/07 09:40:24;;;;;;;37.97;30.88;;;11.90;76.90;;;;;;5009940;28;20136;-92
2023/05/07 09:42:50;;;;;;;38.25;29.67;;;11.90;76.70;;;;;;5007743;28;20153;-94
2023/05/07 09:45:28;;;;;;;38.88;30.38;;;11.90;76.40;;;;;;4994080;28;20072;-93
2023/05/07 09:47:56;;;;;;;42.00;31.67;;;12.00;76.20;;;;;;4993117;28;20124;-93
2023/05/07 09:50:35;;;;;;;41.60;31.42;;;12.00;76.70;;;;;;4999277;28;20049;-92
2023/05/07 09:53:03;;;;;;;39.90;31.15;;;12.10;76.80;;;;;;4997797;28;20590;-93
2023/05/07 09:55:29;;;;;;;38.58;29.52;;;12.20;76.50;;;;;;5015709;28;20092;-93
2023/05/07 09:57:57;;;;;;;40.50;30.70;;;12.30;76.20;;;;;;4992248;28;20540;-92
2023/05/07 10:00:23;;;;;;;36.22;30.02;;;12.40;76.70;;;;;;4999683;28;20045;-93
2023/05/07 10:02:53;;;;;;;38.40;29.95;;;12.50;76.20;;;;;;5013340;28;20613;-93
2023/05/07 10:05:22;;;;;;;38.92;28.67;;;12.50;76.10;;;;;;4998393;28;20050;-94
2023/05/07 10:07:48;;;;;;;36.95;28.30;;;12.60;76.50;;;;;;4996009;28;20041;-94
2023/05/07 10:10:15;;;;;;;35.95;29.98;;;12.80;76.20;;;;;;5032999;28;20140;-92
2023/05/07 10:12:41;;;;;;;39.92;30.10;;;12.80;75.90;;;;;;4975133;28;20495;-91
2023/05/07 10:15:11;;;;;;;34.70;28.85;;;12.90;75.80;;;;;;4990966;28;20053;-93
2023/05/07 10:17:38;;;;;;;41.25;29.63;;;12.90;76.00;;;;;;4973111;28;20049;-92
2023/05/07 10:20:08;;;;;;;34.38;28.80;;;12.90;75.50;;;;;;4970570;28;20045;-91
2023/05/07 10:23:06;;;;;;;34.65;28.50;;;12.90;75.40;;;;;;5012278;28;20045;-93
2023/05/07 10:25:33;;;;;;;37.33;27.67;;;12.90;74.50;;;;;;4998287;28;20057;-94
2023/05/07 10:28:09;;;;;;;36.88;29.73;;;12.90;75.10;;;;;;5015796;28;20045;-92
2023/05/07 10:30:47;;;;;;;33.42;27.75;;;13.00;75.40;;;;;;5012800;28;20038;-92
2023/05/07 10:33:16;;;;;;;39.08;28.92;;;13.00;75.30;;;;;;4994499;28;20613;-93
2023/05/07 10:35:58;;;;;;;38.72;29.17;;;13.10;75.50;;;;;;5015241;28;20045;-92
2023/05/07 10:38:25;;;;;;;35.88;27.60;;;13.20;75.40;;;;;;4994062;28;20054;-92
2023/05/07 10:40:51;;;;;;;33.03;27.00;;;13.20;74.80;;;;;;4998461;28;20050;-93
2023/05/07 10:43:19;;;;;;;34.65;27.13;;;13.10;75.20;;;;;;5011413;28;20048;-94
2023/05/07 10:46:16;;;;;;;34.20;27.10;;;13.30;75.00;;;;;;5015665;28;20124;-95
2023/05/07 10:49:00;;;;;;;32.63;26.08;;;13.30;73.90;;;;;;4983216;28;20103;-93
2023/05/07 10:51:30;;;;;;;34.53;27.48;;;13.30;74.80;;;;;;5014992;28;20057;-92
2023/05/07 10:54:15;;;;;;;32.90;26.58;;;13.30;74.80;;;;;;4999968;28;20046;-93
2023/05/07 10:56:43;;;;;;;33.63;26.70;;;13.30;75.00;;;;;;4993509;28;20034;-93
2023/05/07 10:59:23;;;;;;;31.02;25.42;;;13.40;74.80;;;;;;5012849;28;20041;-94
2023/05/07 11:01:52;;;;;;;31.27;25.67;;;13.50;74.70;;;;;;5015152;28;20081;-93
2023/05/07 11:04:24;;;;;;;32.40;26.25;;;13.70;74.80;;;;;;4969940;28;20102;-93
2023/05/07 11:07:09;;;;;;;30.88;24.85;;;13.80;74.50;;;;;;4994475;28;20042;-93
2023/05/07 11:10:08;;;;;;;32.08;26.30;;;13.70;74.20;;;;;;5002977;28;20054;-92
2023/05/07 11:12:40;;;;;;;31.73;25.20;;;13.90;74.60;;;;;;4941571;28;20045;-93
2023/05/07 11:15:10;;;;;;;30.33;25.35;;;14.00;74.40;;;;;;5015349;28;20050;-93
2023/05/07 11:18:09;;;;;;;;;;;;;;;;;;;;;
2023/05/07 11:20:48;;;;;;;29.58;24.80;;;14.30;72.90;;;;;;5013026;28;20277;-94
2023/05/07 11:23:35;;;;;;;27.55;23.00;;;14.30;73.80;;;;;;5001319;28;20049;-93
2023/05/07 11:26:40;;;;;;;28.70;23.77;;;14.50;73.70;;;;;;5015144;28;20057;-92
2023/05/07 11:29:14;;;;;;;27.70;23.33;;;14.60;73.60;;;;;;4994486;28;20108;-92
2023/05/07 11:31:40;;;;;;;26.88;23.67;;;14.60;73.40;;;;;;4997837;28;20528;-93
2023/05/07 11:34:07;;;;;;;26.02;22.13;;;14.70;73.80;;;;;;4988096;28;20469;-93
2023/05/07 11:36:34;;;;;;;25.75;22.67;;;14.70;73.50;;;;;;5015595;28;20064;-94
2023/05/07 11:39:00;;;;;;;28.50;21.90;;;14.80;73.40;;;;;;5016678;28;20444;-92
2023/05/07 11:41:38;;;;;;;25.75;22.45;;;14.80;73.20;;;;;;5019148;28;20061;-93
2023/05/07 11:44:27;;;;;;;25.98;22.00;;;14.90;72.60;;;;;;5016529;28;20068;-93
2023/05/07 11:46:56;;;;;;;24.35;21.58;;;14.90;73.00;;;;;;4998207;28;20143;-92
2023/05/07 11:49:27;;;;;;;26.13;21.60;;;14.90;73.20;;;;;;5015767;28;20037;-94
2023/05/07 11:51:56;;;;;;;28.77;23.70;;;15.00;73.40;;;;;;5018626;28;20786;-95
2023/05/07 11:54:22;;;;;;;25.58;21.58;;;15.10;74.00;;;;;;4984455;28;20041;-92
2023/05/07 11:56:49;;;;;;;24.52;21.25;;;15.20;73.20;;;;;;4976512;28;20075;-94
2023/05/07 11:59:19;;;;;;;23.05;20.55;;;15.20;73.30;;;;;;5011815;28;20052;-93
2023/05/07 12:02:03;;;;;;;24.63;20.98;;;15.20;72.80;;;;;;5001957;28;20060;-94
2023/05/07 12:04:30;;;;;;;24.13;20.98;;;15.20;72.60;;;;;;5007107;28;20064;-93
2023/05/07 12:07:00;;;;;;;23.38;20.75;;;15.40;72.80;;;;;;4997884;28;20048;-93
2023/05/07 12:09:33;;;;;;;23.77;20.33;;;15.50;72.80;;;;;;5000687;28;20057;-93
2023/05/07 12:12:04;;;;;;;22.60;20.17;;;15.50;72.80;;;;;;5017882;28;20045;-93
2023/05/07 12:14:30;;;;;;;22.33;20.00;;;15.60;72.60;;;;;;5016570;28;20042;-93
2023/05/07 12:17:05;;;;;;;22.77;19.70;;;15.60;72.90;;;;;;4997445;28;20128;-93
2023/05/07 12:19:31;;;;;;;22.23;19.83;;;15.60;71.60;;;;;;5008579;28;20526;-91
2023/05/07 12:21:58;;;;;;;22.27;19.88;;;15.60;71.70;;;;;;4985403;28;20046;-93
2023/05/07 12:24:26;;;;;;;21.10;18.85;;;15.50;72.10;;;;;;5000231;28;20052;-93
2023/05/07 12:26:53;;;;;;;24.50;20.13;;;15.60;72.50;;;;;;5013943;28;20042;-93
2023/05/07 12:29:22;;;;;;;22.15;19.00;;;15.80;72.90;;;;;;4983600;28;20490;-94
2023/05/07 12:31:50;;;;;;;21.75;19.55;;;15.90;72.10;;;;;;5001752;28;20053;-93
2023/05/07 12:34:24;;;;;;;22.65;20.25;;;16.00;72.60;;;;;;5006791;28;20045;-95
2023/05/07 12:36:52;;;;;;;23.35;19.70;;;16.10;72.10;;;;;;4996903;28;20050;-94
2023/05/07 12:39:24;;;;;;;21.38;19.15;;;16.10;71.80;;;;;;5001476;28;20046;-93
2023/05/07 12:42:05;;;;;;;22.20;19.77;;;16.10;71.60;;;;;;4992513;28;20052;-96
2023/05/07 12:44:33;;;;;;;22.33;19.63;;;16.00;70.80;;;;;;5004902;28;20064;-94